sensor_id;sensor_type;location;lat;lon;timestamp;pressure;altitude;pressure_sealevel;temperature;humidity
47530;BME280;33272;51.922;7.730;2023-03-21T00:00:37;144965.91;;;9.94;100.00
47530;BME280;33272;51.922;7.730;2023-03-21T00:03:05;144986.22;;;10.03;100.00
47530;BME280;33272;51.922;7.730;2023-03-21T00:05:33;144965.91;;;9.94;100.00
47530;BME280;33272;51.922;7.730;2023-03-21T00:08:00;144979.88;;;10.00;100.00
47530;BME280;33272;51.922;7.730;2023-03-21T00:10:28;144995.06;;;10.06;100.00
47530;BME280;33272;51.922;7.730;2023-03-21T00:12:55;144992.50;;;10.05;100.00
47530;BME280;33272;51.922;7.730;2023-03-21T00:15:23;144995.06;;;10.06;100.00
47530;BME280;33272;51.922;7.730;2023-03-21T00:17:53;145002.66;;;10.09;100.00
47530;BME280;33272;51.922;7.730;2023-03-21T00:20:23;144995.06;;;10.06;100.00
47530;BME280;33272;51.922;7.730;2023-03-21T00:22:51;144996.31;;;10.07;100.00
47530;BME280;33272;51.922;7.730;2023-03-21T00:25:18;145008.97;;;10.12;100.00
47530;BME280;33272;51.922;7.730;2023-03-21T00:27:45;145017.88;;;10.15;100.00
47530;BME280;33272;51.922;7.730;2023-03-21T00:30:13;145025.47;;;10.18;100.00
47530;BME280;33272;51.922;7.730;2023-03-21T00:32:40;145021.66;;;10.17;100.00
47530;BME280;33272;51.922;7.730;2023-03-21T00:35:09;145034.34;;;10.22;100.00
47530;BME280;33272;51.922;7.730;2023-03-21T00:37:36;145038.13;;;10.24;100.00
47530;BME280;33272;51.922;7.730;2023-03-21T00:40:06;145022.91;;;10.17;100.00
47530;BME280;33272;51.922;7.730;2023-03-21T00:42:35;145049.59;;;10.28;100.00
47530;BME280;33272;51.922;7.730;2023-03-21T00:45:03;145041.94;;;10.25;100.00
47530;BME280;33272;51.922;7.730;2023-03-21T00:47:31;145048.34;;;10.28;100.00
47530;BME280;33272;51.922;7.730;2023-03-21T00:49:58;145022.91;;;10.17;100.00
47530;BME280;33272;51.922;7.730;2023-03-21T00:52:25;145038.13;;;10.24;100.00
47530;BME280;33272;51.922;7.730;2023-03-21T00:54:52;145036.84;;;10.23;100.00
47530;BME280;33272;51.922;7.730;2023-03-21T00:57:20;145017.88;;;10.15;100.00
47530;BME280;33272;51.922;7.730;2023-03-21T00:59:47;145029.25;;;10.20;100.00
47530;BME280;33272;51.922;7.730;2023-03-21T01:02:14;145025.47;;;10.18;100.00
47530;BME280;33272;51.922;7.730;2023-03-21T01:04:47;145040.69;;;10.25;100.00
47530;BME280;33272;51.922;7.730;2023-03-21T01:07:14;145035.59;;;10.23;100.00
47530;BME280;33272;51.922;7.730;2023-03-21T01:09:41;145026.75;;;10.19;100.00
47530;BME280;33272;51.922;7.730;2023-03-21T01:12:08;145040.69;;;10.25;100.00
47530;BME280;33272;51.922;7.730;2023-03-21T01:14:37;145022.91;;;10.17;100.00
47530;BME280;33272;51.922;7.730;2023-03-21T01:17:04;145030.50;;;10.20;100.00
47530;BME280;33272;51.922;7.730;2023-03-21T01:19:32;145030.50;;;10.20;100.00
47530;BME280;33272;51.922;7.730;2023-03-21T01:21:59;145039.38;;;10.24;100.00
47530;BME280;33272;51.922;7.730;2023-03-21T01:24:26;145024.19;;;10.18;100.00
47530;BME280;33272;51.922;7.730;2023-03-21T01:26:53;145030.50;;;10.20;100.00
47530;BME280;33272;51.922;7.730;2023-03-21T01:29:20;145031.78;;;10.21;100.00
47530;BME280;33272;51.922;7.730;2023-03-21T01:31:49;145025.47;;;10.18;100.00
47530;BME280;33272;51.922;7.730;2023-03-21T01:34:16;145011.53;;;10.13;100.00
47530;BME280;33272;51.922;7.730;2023-03-21T01:36:43;145031.78;;;10.21;100.00
47530;BME280;33272;51.922;7.730;2023-03-21T01:39:10;145034.34;;;10.22;100.00
47530;BME280;33272;51.922;7.730;2023-03-21T01:41:40;145036.84;;;10.23;100.00
47530;BME280;33272;51.922;7.730;2023-03-21T01:44:14;145039.38;;;10.24;100.00
47530;BME280;33272;51.922;7.730;2023-03-21T01:46:43;145035.59;;;10.23;100.00
47530;BME280;33272;51.922;7.730;2023-03-21T01:49:18;145022.91;;;10.17;100.00
47530;BME280;33272;51.922;7.730;2023-03-21T01:51:49;145028.00;;;10.19;100.00
47530;BME280;33272;51.922;7.730;2023-03-21T01:54:22;145034.34;;;10.22;100.00
47530;BME280;33272;51.922;7.730;2023-03-21T01:56:52;145039.38;;;10.24;100.00
47530;BME280;33272;51.922;7.730;2023-03-21T01:59:23;145041.94;;;10.25;100.00
47530;BME280;33272;51.922;7.730;2023-03-21T02:01:53;145039.38;;;10.24;100.00
47530;BME280;33272;51.922;7.730;2023-03-21T02:04:24;145060.97;;;10.33;100.00
47530;BME280;33272;51.922;7.730;2023-03-21T02:06:57;145068.59;;;10.36;100.00
47530;BME280;33272;51.922;7.730;2023-03-21T02:09:30;145059.72;;;10.32;100.00
47530;BME280;33272;51.922;7.730;2023-03-21T02:11:58;145059.72;;;10.32;100.00
47530;BME280;33272;51.922;7.730;2023-03-21T02:14:26;145055.91;;;10.31;100.00
47530;BME280;33272;51.922;7.730;2023-03-21T02:17:03;145050.84;;;10.29;100.00
47530;BME280;33272;51.922;7.730;2023-03-21T02:23:08;145050.84;;;10.29;100.00
47530;BME280;33272;51.922;7.730;2023-03-21T02:29:00;145059.72;;;10.32;100.00
47530;BME280;33272;51.922;7.730;2023-03-21T02:31:39;145069.84;;;10.36;100.00
47530;BME280;33272;51.922;7.730;2023-03-21T02:37:32;145021.66;;;10.17;100.00
47530;BME280;33272;51.922;7.730;2023-03-21T02:40:09;145039.38;;;10.24;100.00
47530;BME280;33272;51.922;7.730;2023-03-21T02:42:51;145040.69;;;10.25;100.00
47530;BME280;33272;51.922;7.730;2023-03-21T02:45:23;145063.50;;;10.34;100.00
47530;BME280;33272;51.922;7.730;2023-03-21T02:47:55;145054.63;;;10.30;100.00
47530;BME280;33272;51.922;7.730;2023-03-21T02:50:26;145060.97;;;10.33;100.00
47530;BME280;33272;51.922;7.730;2023-03-21T02:52:58;145048.34;;;10.28;100.00
47530;BME280;33272;51.922;7.730;2023-03-21T02:55:30;145066.06;;;10.35;100.00
47530;BME280;33272;51.922;7.730;2023-03-21T02:57:58;145060.97;;;10.33;100.00
47530;BME280;33272;51.922;7.730;2023-03-21T03:00:29;145074.94;;;10.38;100.00
47530;BME280;33272;51.922;7.730;2023-03-21T03:02:57;145082.53;;;10.41;100.00
47530;BME280;33272;51.922;7.730;2023-03-21T03:05:27;145083.78;;;10.42;100.00
47530;BME280;33272;51.922;7.730;2023-03-21T03:08:08;145091.41;;;10.45;100.00
47530;BME280;33272;51.922;7.730;2023-03-21T03:11:01;145085.06;;;10.42;100.00
47530;BME280;33272;51.922;7.730;2023-03-21T03:13:46;145095.22;;;10.47;100.00
47530;BME280;33272;51.922;7.730;2023-03-21T03:16:26;145088.88;;;10.44;100.00
47530;BME280;33272;51.922;7.730;2023-03-21T03:18:59;145095.22;;;10.47;100.00
47530;BME280;33272;51.922;7.730;2023-03-21T03:21:30;145069.84;;;10.36;100.00
47530;BME280;33272;51.922;7.730;2023-03-21T03:24:02;145087.63;;;10.43;100.00
47530;BME280;33272;51.922;7.730;2023-03-21T03:26:36;145093.91;;;10.46;100.00
47530;BME280;33272;51.922;7.730;2023-03-21T03:29:07;145096.50;;;10.47;100.00
47530;BME280;33272;51.922;7.730;2023-03-21T03:31:40;145074.94;;;10.38;100.00
47530;BME280;33272;51.922;7.730;2023-03-21T03:34:13;145077.44;;;10.39;100.00
47530;BME280;33272;51.922;7.730;2023-03-21T03:36:43;145076.19;;;10.39;100.00
47530;BME280;33272;51.922;7.730;2023-03-21T03:39:14;145074.94;;;10.38;100.00
47530;BME280;33272;51.922;7.730;2023-03-21T03:41:48;145054.63;;;10.30;100.00
47530;BME280;33272;51.922;7.730;2023-03-21T03:44:15;145060.97;;;10.33;100.00
47530;BME280;33272;51.922;7.730;2023-03-21T03:46:47;145063.50;;;10.34;100.00
47530;BME280;33272;51.922;7.730;2023-03-21T03:49:21;145062.25;;;10.33;100.00
47530;BME280;33272;51.922;7.730;2023-03-21T03:51:53;145057.19;;;10.31;100.00
47530;BME280;33272;51.922;7.730;2023-03-21T03:54:26;145054.63;;;10.30;100.00
47530;BME280;33272;51.922;7.730;2023-03-21T03:56:54;145053.38;;;10.30;100.00
47530;BME280;33272;51.922;7.730;2023-03-21T03:59:22;145069.84;;;10.36;100.00
47530;BME280;33272;51.922;7.730;2023-03-21T04:01:50;145073.66;;;10.38;100.00
47530;BME280;33272;51.922;7.730;2023-03-21T04:04:17;145069.84;;;10.36;100.00
47530;BME280;33272;51.922;7.730;2023-03-21T04:06:47;145049.59;;;10.28;100.00
47530;BME280;33272;51.922;7.730;2023-03-21T04:09:17;145047.03;;;10.27;100.00
47530;BME280;33272;51.922;7.730;2023-03-21T04:11:45;145059.72;;;10.32;100.00
47530;BME280;33272;51.922;7.730;2023-03-21T04:14:12;145034.34;;;10.22;100.00
47530;BME280;33272;51.922;7.730;2023-03-21T04:16:40;145039.38;;;10.24;100.00
47530;BME280;33272;51.922;7.730;2023-03-21T04:19:07;145047.03;;;10.27;100.00
47530;BME280;33272;51.922;7.730;2023-03-21T04:21:34;145049.59;;;10.28;100.00
47530;BME280;33272;51.922;7.730;2023-03-21T04:24:01;145044.50;;;10.26;100.00
47530;BME280;33272;51.922;7.730;2023-03-21T04:26:28;145052.13;;;10.29;100.00
47530;BME280;33272;51.922;7.730;2023-03-21T04:28:59;145063.50;;;10.34;100.00
47530;BME280;33272;51.922;7.730;2023-03-21T04:31:27;145064.81;;;10.34;100.00
47530;BME280;33272;51.922;7.730;2023-03-21T04:33:55;145059.72;;;10.32;100.00
47530;BME280;33272;51.922;7.730;2023-03-21T04:36:23;145066.06;;;10.35;100.00
47530;BME280;33272;51.922;7.730;2023-03-21T04:38:58;145062.25;;;10.33;100.00
47530;BME280;33272;51.922;7.730;2023-03-21T04:41:26;145064.81;;;10.34;100.00
47530;BME280;33272;51.922;7.730;2023-03-21T04:43:53;145074.94;;;10.38;100.00
47530;BME280;33272;51.922;7.730;2023-03-21T04:46:22;145086.31;;;10.43;100.00
47530;BME280;33272;51.922;7.730;2023-03-21T04:48:49;145086.31;;;10.43;100.00
47530;BME280;33272;51.922;7.730;2023-03-21T04:51:16;145091.41;;;10.45;100.00
47530;BME280;33272;51.922;7.730;2023-03-21T04:53:43;145097.75;;;10.48;100.00
47530;BME280;33272;51.922;7.730;2023-03-21T04:56:14;145087.63;;;10.43;100.00
47530;BME280;33272;51.922;7.730;2023-03-21T04:58:42;145083.78;;;10.42;100.00
47530;BME280;33272;51.922;7.730;2023-03-21T05:01:09;145087.63;;;10.43;100.00
47530;BME280;33272;51.922;7.730;2023-03-21T05:03:40;145091.41;;;10.45;100.00
47530;BME280;33272;51.922;7.730;2023-03-21T05:06:08;145090.13;;;10.44;100.00
47530;BME280;33272;51.922;7.730;2023-03-21T05:08:36;145086.31;;;10.43;100.00
47530;BME280;33272;51.922;7.730;2023-03-21T05:11:03;145082.53;;;10.41;100.00
47530;BME280;33272;51.922;7.730;2023-03-21T05:13:30;145085.06;;;10.42;100.00
47530;BME280;33272;51.922;7.730;2023-03-21T05:15:57;145085.06;;;10.42;100.00
47530;BME280;33272;51.922;7.730;2023-03-21T05:18:25;145085.06;;;10.42;100.00
47530;BME280;33272;51.922;7.730;2023-03-21T05:20:54;145077.44;;;10.39;100.00
47530;BME280;33272;51.922;7.730;2023-03-21T05:23:23;145077.44;;;10.39;100.00
47530;BME280;33272;51.922;7.730;2023-03-21T05:25:50;145068.59;;;10.36;100.00
47530;BME280;33272;51.922;7.730;2023-03-21T05:28:17;145069.84;;;10.36;100.00
47530;BME280;33272;51.922;7.730;2023-03-21T05:30:44;145071.09;;;10.37;100.00
47530;BME280;33272;51.922;7.730;2023-03-21T05:33:12;145058.47;;;10.32;100.00
47530;BME280;33272;51.922;7.730;2023-03-21T05:35:39;145062.25;;;10.33;100.00
47530;BME280;33272;51.922;7.730;2023-03-21T05:38:07;145063.50;;;10.34;100.00
47530;BME280;33272;51.922;7.730;2023-03-21T05:40:34;145068.59;;;10.36;100.00
47530;BME280;33272;51.922;7.730;2023-03-21T05:43:01;145069.84;;;10.36;100.00
47530;BME280;33272;51.922;7.730;2023-03-21T05:45:28;145069.84;;;10.36;100.00
47530;BME280;33272;51.922;7.730;2023-03-21T05:47:55;145057.19;;;10.31;100.00
47530;BME280;33272;51.922;7.730;2023-03-21T05:50:22;145073.66;;;10.38;100.00
47530;BME280;33272;51.922;7.730;2023-03-21T05:52:49;145067.31;;;10.35;100.00
47530;BME280;33272;51.922;7.730;2023-03-21T05:55:17;145062.25;;;10.33;100.00
47530;BME280;33272;51.922;7.730;2023-03-21T05:57:44;145071.09;;;10.37;100.00
47530;BME280;33272;51.922;7.730;2023-03-21T06:00:13;145073.66;;;10.38;100.00
47530;BME280;33272;51.922;7.730;2023-03-21T06:02:40;145083.78;;;10.42;100.00
47530;BME280;33272;51.922;7.730;2023-03-21T06:05:08;145064.81;;;10.34;100.00
47530;BME280;33272;51.922;7.730;2023-03-21T06:07:36;145074.94;;;10.38;100.00
47530;BME280;33272;51.922;7.730;2023-03-21T06:10:04;145082.53;;;10.41;100.00
47530;BME280;33272;51.922;7.730;2023-03-21T06:12:32;145087.63;;;10.43;100.00
47530;BME280;33272;51.922;7.730;2023-03-21T06:14:59;145096.50;;;10.47;100.00
47530;BME280;33272;51.922;7.730;2023-03-21T06:17:26;145101.53;;;10.49;100.00
47530;BME280;33272;51.922;7.730;2023-03-21T06:19:53;145087.63;;;10.43;100.00
47530;BME280;33272;51.922;7.730;2023-03-21T06:22:20;145092.66;;;10.46;100.00
47530;BME280;33272;51.922;7.730;2023-03-21T06:24:47;145114.22;;;10.54;100.00
47530;BME280;33272;51.922;7.730;2023-03-21T06:27:14;145109.13;;;10.52;100.00
47530;BME280;33272;51.922;7.730;2023-03-21T06:29:43;145129.44;;;10.60;100.00
47530;BME280;33272;51.922;7.730;2023-03-21T06:32:10;145125.59;;;10.59;100.00
47530;BME280;33272;51.922;7.730;2023-03-21T06:34:37;145124.34;;;10.58;100.00
47530;BME280;33272;51.922;7.730;2023-03-21T06:37:05;145121.81;;;10.57;100.00
47530;BME280;33272;51.922;7.730;2023-03-21T06:39:32;145110.38;;;10.53;100.00
47530;BME280;33272;51.922;7.730;2023-03-21T06:41:59;145125.59;;;10.59;100.00
47530;BME280;33272;51.922;7.730;2023-03-21T06:44:26;145115.47;;;10.55;100.00
47530;BME280;33272;51.922;7.730;2023-03-21T06:46:55;145109.13;;;10.52;100.00
47530;BME280;33272;51.922;7.730;2023-03-21T06:49:22;145107.88;;;10.52;100.00
47530;BME280;33272;51.922;7.730;2023-03-21T06:51:49;145124.34;;;10.58;100.00
47530;BME280;33272;51.922;7.730;2023-03-21T06:54:16;145126.91;;;10.59;100.00
47530;BME280;33272;51.922;7.730;2023-03-21T06:56:43;145142.06;;;10.65;100.00
47530;BME280;33272;51.922;7.730;2023-03-21T06:59:10;145147.16;;;10.67;100.00
47530;BME280;33272;51.922;7.730;2023-03-21T07:01:38;145161.13;;;10.73;100.00
47530;BME280;33272;51.922;7.730;2023-03-21T07:04:06;145156.03;;;10.71;100.00
47530;BME280;33272;51.922;7.730;2023-03-21T07:06:33;145162.38;;;10.74;100.00
47530;BME280;33272;51.922;7.730;2023-03-21T07:09:00;145167.47;;;10.76;100.00
47530;BME280;33272;51.922;7.730;2023-03-21T07:11:30;145176.31;;;10.79;100.00
47530;BME280;33272;51.922;7.730;2023-03-21T07:13:57;145181.41;;;10.81;100.00
47530;BME280;33272;51.922;7.730;2023-03-21T07:16:24;145192.81;;;10.86;100.00
47530;BME280;33272;51.922;7.730;2023-03-21T07:18:51;145195.31;;;10.87;100.00
47530;BME280;33272;51.922;7.730;2023-03-21T07:21:20;145218.16;;;10.96;100.00
47530;BME280;33272;51.922;7.730;2023-03-21T07:23:47;145235.88;;;11.03;100.00
47530;BME280;33272;51.922;7.730;2023-03-21T07:26:15;145243.50;;;11.06;100.00
47530;BME280;33272;51.922;7.730;2023-03-21T07:28:43;145246.06;;;11.07;100.00
47530;BME280;33272;51.922;7.730;2023-03-21T07:31:14;145249.84;;;11.09;100.00
47530;BME280;33272;51.922;7.730;2023-03-21T07:33:42;145261.28;;;11.13;100.00
47530;BME280;33272;51.922;7.730;2023-03-21T07:36:10;145261.28;;;11.13;100.00
47530;BME280;33272;51.922;7.730;2023-03-21T07:38:39;145270.16;;;11.17;100.00
47530;BME280;33272;51.922;7.730;2023-03-21T07:41:06;145275.22;;;11.19;100.00
47530;BME280;33272;51.922;7.730;2023-03-21T07:43:34;145267.63;;;11.16;100.00
47530;BME280;33272;51.922;7.730;2023-03-21T07:46:01;145249.84;;;11.09;100.00
47530;BME280;33272;51.922;7.730;2023-03-21T07:48:30;145261.28;;;11.13;100.00
47530;BME280;33272;51.922;7.730;2023-03-21T07:50:57;145258.72;;;11.12;100.00
47530;BME280;33272;51.922;7.730;2023-03-21T07:53:25;145227.00;;;11.00;100.00
47530;BME280;33272;51.922;7.730;2023-03-21T07:55:54;145221.97;;;10.98;100.00
47530;BME280;33272;51.922;7.730;2023-03-21T07:58:21;145242.22;;;11.06;100.00
47530;BME280;33272;51.922;7.730;2023-03-21T08:00:48;145233.38;;;11.02;100.00
47530;BME280;33272;51.922;7.730;2023-03-21T08:03:16;145248.59;;;11.08;100.00
47530;BME280;33272;51.922;7.730;2023-03-21T08:05:43;145254.94;;;11.11;100.00
47530;BME280;33272;51.922;7.730;2023-03-21T08:08:11;145272.66;;;11.18;100.00
47530;BME280;33272;51.922;7.730;2023-03-21T08:10:38;145285.38;;;11.23;100.00
47530;BME280;33272;51.922;7.730;2023-03-21T08:13:09;145275.22;;;11.19;100.00
47530;BME280;33272;51.922;7.730;2023-03-21T08:15:36;145291.72;;;11.26;100.00
47530;BME280;33272;51.922;7.730;2023-03-21T08:18:04;145306.94;;;11.32;100.00
47530;BME280;33272;51.922;7.730;2023-03-21T08:20:31;145324.69;;;11.39;100.00
47530;BME280;33272;51.922;7.730;2023-03-21T08:22:58;145341.16;;;11.46;100.00
47530;BME280;33272;51.922;7.730;2023-03-21T08:25:25;145355.13;;;11.51;100.00
47530;BME280;33272;51.922;7.730;2023-03-21T08:27:52;145362.75;;;11.54;100.00
47530;BME280;33272;51.922;7.730;2023-03-21T08:30:27;145365.25;;;11.55;100.00
47530;BME280;33272;51.922;7.730;2023-03-21T08:32:56;145353.88;;;11.51;100.00
47530;BME280;33272;51.922;7.730;2023-03-21T08:35:24;145358.91;;;11.53;100.00
47530;BME280;33272;51.922;7.730;2023-03-21T08:37:51;145361.47;;;11.54;100.00
47530;BME280;33272;51.922;7.730;2023-03-21T08:40:19;145360.16;;;11.53;100.00
47530;BME280;33272;51.922;7.730;2023-03-21T08:42:46;145323.41;;;11.39;100.00
47530;BME280;33272;51.922;7.730;2023-03-21T08:45:15;145348.78;;;11.49;100.00
47530;BME280;33272;51.922;7.730;2023-03-21T08:47:44;145366.53;;;11.56;100.00
47530;BME280;33272;51.922;7.730;2023-03-21T08:50:14;145386.84;;;11.64;100.00
47530;BME280;33272;51.922;7.730;2023-03-21T08:52:41;145405.84;;;11.72;100.00
47530;BME280;33272;51.922;7.730;2023-03-21T08:55:09;145403.31;;;11.71;100.00
47530;BME280;33272;51.922;7.730;2023-03-21T08:57:37;145379.22;;;11.61;100.00
47530;BME280;33272;51.922;7.730;2023-03-21T09:00:06;145410.94;;;11.74;100.00
47530;BME280;33272;51.922;7.730;2023-03-21T09:02:37;145442.69;;;11.87;100.00
47530;BME280;33272;51.922;7.730;2023-03-21T09:05:07;145433.78;;;11.83;100.00
47530;BME280;33272;51.922;7.730;2023-03-21T09:07:37;145436.31;;;11.84;100.00
47530;BME280;33272;51.922;7.730;2023-03-21T09:10:06;145443.97;;;11.87;100.00
47530;BME280;33272;51.922;7.730;2023-03-21T09:12:34;145464.28;;;11.95;100.00
47530;BME280;33272;51.922;7.730;2023-03-21T09:15:02;145485.81;;;12.04;100.00
47530;BME280;33272;51.922;7.730;2023-03-21T09:17:30;145498.53;;;12.09;100.00
47530;BME280;33272;51.922;7.730;2023-03-21T09:19:57;145517.53;;;12.17;100.00
47530;BME280;33272;51.922;7.730;2023-03-21T09:22:26;145529.00;;;12.21;100.00
47530;BME280;33272;51.922;7.730;2023-03-21T09:24:53;145508.66;;;12.13;100.00
47530;BME280;33272;51.922;7.730;2023-03-21T09:27:22;145530.25;;;12.22;100.00
47530;BME280;33272;51.922;7.730;2023-03-21T09:29:52;145545.47;;;12.28;100.00
47530;BME280;33272;51.922;7.730;2023-03-21T09:32:20;145581.03;;;12.42;100.00
47530;BME280;33272;51.922;7.730;2023-03-21T09:34:47;145612.78;;;12.55;100.00
47530;BME280;33272;51.922;7.730;2023-03-21T09:37:14;145650.88;;;12.70;100.00
47530;BME280;33272;51.922;7.730;2023-03-21T09:39:43;145696.53;;;12.89;100.00
47530;BME280;33272;51.922;7.730;2023-03-21T09:42:19;145727.03;;;13.01;100.00
47530;BME280;33272;51.922;7.730;2023-03-21T09:45:05;145744.84;;;13.08;100.00
47530;BME280;33272;51.922;7.730;2023-03-21T09:47:40;145761.34;;;13.15;100.00
47530;BME280;33272;51.922;7.730;2023-03-21T09:50:15;145700.38;;;12.90;100.00
47530;BME280;33272;51.922;7.730;2023-03-21T09:52:49;145723.25;;;12.99;100.00
47530;BME280;33272;51.922;7.730;2023-03-21T09:55:21;145757.50;;;13.13;100.00
47530;BME280;33272;51.922;7.730;2023-03-21T09:58:00;145777.84;;;13.21;100.00
47530;BME280;33272;51.922;7.730;2023-03-21T10:00:35;145795.66;;;13.29;100.00
47530;BME280;33272;51.922;7.730;2023-03-21T10:03:07;145804.56;;;13.32;100.00
47530;BME280;33272;51.922;7.730;2023-03-21T10:05:43;145747.38;;;13.09;100.00
47530;BME280;33272;51.922;7.730;2023-03-21T10:08:16;145756.25;;;13.13;100.00
47530;BME280;33272;51.922;7.730;2023-03-21T10:10:48;145752.41;;;13.11;100.00
47530;BME280;33272;51.922;7.730;2023-03-21T10:13:19;145746.09;;;13.09;100.00
47530;BME280;33272;51.922;7.730;2023-03-21T10:15:47;145768.97;;;13.18;100.00
47530;BME280;33272;51.922;7.730;2023-03-21T10:18:21;145784.22;;;13.24;100.00
47530;BME280;33272;51.922;7.730;2023-03-21T10:20:50;145779.13;;;13.22;100.00
47530;BME280;33272;51.922;7.730;2023-03-21T10:23:24;145814.72;;;13.36;100.00
47530;BME280;33272;51.922;7.730;2023-03-21T10:25:55;145832.53;;;13.43;100.00
47530;BME280;33272;51.922;7.730;2023-03-21T10:28:26;145854.09;;;13.52;100.00
47530;BME280;33272;51.922;7.730;2023-03-21T10:30:55;145814.72;;;13.36;100.00
47530;BME280;33272;51.922;7.730;2023-03-21T10:33:25;145812.19;;;13.35;100.00
47530;BME280;33272;51.922;7.730;2023-03-21T10:35:58;145780.38;;;13.22;100.00
47530;BME280;33272;51.922;7.730;2023-03-21T10:38:26;145807.09;;;13.33;100.00
47530;BME280;33272;51.922;7.730;2023-03-21T10:40:54;145802.03;;;13.31;100.00
47530;BME280;33272;51.922;7.730;2023-03-21T10:43:35;145804.56;;;13.32;100.00
47530;BME280;33272;51.922;7.730;2023-03-21T10:46:10;145791.84;;;13.27;100.00
47530;BME280;33272;51.922;7.730;2023-03-21T10:48:38;145758.78;;;13.14;100.00
47530;BME280;33272;51.922;7.730;2023-03-21T10:51:08;145762.59;;;13.15;100.00
47530;BME280;33272;51.922;7.730;2023-03-21T10:53:38;145770.22;;;13.18;100.00
47530;BME280;33272;51.922;7.730;2023-03-21T10:56:10;145790.56;;;13.27;100.00
47530;BME280;33272;51.922;7.730;2023-03-21T10:58:43;145808.41;;;13.34;100.00
47530;BME280;33272;51.922;7.730;2023-03-21T11:01:20;145823.66;;;13.40;100.00
47530;BME280;33272;51.922;7.730;2023-03-21T11:03:56;145831.25;;;13.43;100.00
47530;BME280;33272;51.922;7.730;2023-03-21T11:06:28;145821.06;;;13.39;100.00
47530;BME280;33272;51.922;7.730;2023-03-21T11:09:03;145821.06;;;13.39;100.00
47530;BME280;33272;51.922;7.730;2023-03-21T11:11:37;145813.44;;;13.36;100.00
47530;BME280;33272;51.922;7.730;2023-03-21T11:14:12;145818.53;;;13.38;100.00
47530;BME280;33272;51.922;7.730;2023-03-21T11:16:50;145758.78;;;13.14;100.00
47530;BME280;33272;51.922;7.730;2023-03-21T11:19:19;145795.66;;;13.29;100.00
47530;BME280;33272;51.922;7.730;2023-03-21T11:21:52;145798.19;;;13.30;100.00
47530;BME280;33272;51.922;7.730;2023-03-21T11:24:22;145799.47;;;13.30;100.00
47530;BME280;33272;51.922;7.730;2023-03-21T11:26:50;145805.81;;;13.33;100.00
47530;BME280;33272;51.922;7.730;2023-03-21T11:29:28;145779.13;;;13.22;100.00
47530;BME280;33272;51.922;7.730;2023-03-21T11:32:00;145739.75;;;13.06;100.00
47530;BME280;33272;51.922;7.730;2023-03-21T11:34:33;145772.75;;;13.19;100.00
47530;BME280;33272;51.922;7.730;2023-03-21T11:37:05;145760.03;;;13.14;100.00
47530;BME280;33272;51.922;7.730;2023-03-21T11:39:35;145735.91;;;13.05;100.00
47530;BME280;33272;51.922;7.730;2023-03-21T11:42:27;145705.44;;;12.92;100.00
47530;BME280;33272;51.922;7.730;2023-03-21T11:45:02;145738.47;;;13.06;100.00
47530;BME280;33272;51.922;7.730;2023-03-21T11:47:31;145772.75;;;13.19;100.00
47530;BME280;33272;51.922;7.730;2023-03-21T11:49:58;145799.47;;;13.30;100.00
47530;BME280;33272;51.922;7.730;2023-03-21T11:52:35;145805.81;;;13.33;100.00
47530;BME280;33272;51.922;7.730;2023-03-21T11:55:28;145824.91;;;13.40;100.00
47530;BME280;33272;51.922;7.730;2023-03-21T12:01:04;145833.78;;;13.44;100.00
47530;BME280;33272;51.922;7.730;2023-03-21T12:04:02;145846.47;;;13.49;100.00
47530;BME280;33272;51.922;7.730;2023-03-21T12:06:34;145854.09;;;13.52;100.00
47530;BME280;33272;51.922;7.730;2023-03-21T12:09:15;145850.31;;;13.51;100.00
47530;BME280;33272;51.922;7.730;2023-03-21T12:11:57;145846.47;;;13.49;100.00
47530;BME280;33272;51.922;7.730;2023-03-21T12:14:35;145847.78;;;13.50;100.00
47530;BME280;33272;51.922;7.730;2023-03-21T12:17:21;145845.19;;;13.49;100.00
47530;BME280;33272;51.922;7.730;2023-03-21T12:20:07;145866.81;;;13.57;100.00
47530;BME280;33272;51.922;7.730;2023-03-21T12:22:48;145871.91;;;13.59;100.00
47530;BME280;33272;51.922;7.730;2023-03-21T12:25:23;145883.31;;;13.64;100.00
47530;BME280;33272;51.922;7.730;2023-03-21T12:28:01;145908.72;;;13.74;100.00
47530;BME280;33272;51.922;7.730;2023-03-21T12:30:44;145932.88;;;13.84;100.00
47530;BME280;33272;51.922;7.730;2023-03-21T12:33:37;145931.59;;;13.83;100.00
47530;BME280;33272;51.922;7.730;2023-03-21T12:36:34;145927.81;;;13.82;100.00
47530;BME280;33272;51.922;7.730;2023-03-21T12:39:16;145963.38;;;13.96;100.00
47530;BME280;33272;51.922;7.730;2023-03-21T12:42:08;145982.47;;;14.04;100.00
47530;BME280;33272;51.922;7.730;2023-03-21T12:44:38;146016.78;;;14.18;100.00
47530;BME280;33272;51.922;7.730;2023-03-21T12:47:13;146062.53;;;14.36;100.00
47530;BME280;33272;51.922;7.730;2023-03-21T12:49:46;146099.47;;;14.51;100.00
47530;BME280;33272;51.922;7.730;2023-03-21T12:52:20;146119.78;;;14.59;100.00
47530;BME280;33272;51.922;7.730;2023-03-21T12:54:52;146132.53;;;14.64;100.00
47530;BME280;33272;51.922;7.730;2023-03-21T12:57:24;146137.63;;;14.66;100.00
47530;BME280;33272;51.922;7.730;2023-03-21T12:59:58;146138.91;;;14.67;100.00
47530;BME280;33272;51.922;7.730;2023-03-21T13:02:31;146128.69;;;14.63;100.00
47530;BME280;33272;51.922;7.730;2023-03-21T13:05:04;146140.16;;;14.67;100.00
47530;BME280;33272;51.922;7.730;2023-03-21T13:07:39;146103.28;;;14.52;100.00
47530;BME280;33272;51.922;7.730;2023-03-21T13:10:15;146104.53;;;14.53;100.00